Adell, Wisconsin
Current Conditions -  °F | °C
As of 1:53 PM on Thursday 30 Oct 2014 (Local Time) from KSBM Reporting Station
Overcast Overcast  
Wind Chill: 50°   Ceiling: 10000
Heat Index: 50°   Visibility: 10mi
Dew Point: 34°   Wind: 9mph
Humidity: 54%   Direction: 270°W
Pressure: 30.04"   Gusts: NA
Location:  43.62°N, 87.95°W
Report Text: KSBM 301853Z AUTO 27008KT 10SM FEW036 BKN100 OVC120 10/01 A3004 RMK AO2 SLP177 T01000011
Loading
Personal Weather Stations






























Interactive Weather Map
Tropical Storm Tracking
New forecast layout! Learn more

10-Day Weather Forecast

Advertisements
Track Severe Weather on mobile